sensor_id;sensor_type;location;lat;lon;timestamp;P1;durP1;ratioP1;P2;durP2;ratioP2
18610;SDS011;9435;52.122;5.502;2023-04-25T00:00:21;22.85;;;4.38;;
18610;SDS011;9435;52.122;5.502;2023-04-25T00:02:48;22.52;;;4.25;;
18610;SDS011;9435;52.122;5.502;2023-04-25T00:05:15;15.30;;;3.75;;
18610;SDS011;9435;52.122;5.502;2023-04-25T00:07:44;16.30;;;3.90;;
18610;SDS011;9435;52.122;5.502;2023-04-25T00:10:11;13.50;;;3.50;;
18610;SDS011;9435;52.122;5.502;2023-04-25T00:12:39;14.07;;;3.33;;
18610;SDS011;9435;52.122;5.502;2023-04-25T00:15:07;10.30;;;3.08;;
18610;SDS011;9435;52.122;5.502;2023-04-25T00:17:35;11.80;;;2.72;;
18610;SDS011;9435;52.122;5.502;2023-04-25T00:20:03;13.75;;;3.13;;
18610;SDS011;9435;52.122;5.502;2023-04-25T00:22:34;16.35;;;3.55;;
18610;SDS011;9435;52.122;5.502;2023-04-25T00:25:04;15.57;;;3.45;;
18610;SDS011;9435;52.122;5.502;2023-04-25T00:27:31;18.98;;;4.00;;
18610;SDS011;9435;52.122;5.502;2023-04-25T00:29:58;12.88;;;3.65;;
18610;SDS011;9435;52.122;5.502;2023-04-25T00:32:26;17.45;;;4.57;;
18610;SDS011;9435;52.122;5.502;2023-04-25T00:34:53;18.38;;;4.38;;
18610;SDS011;9435;52.122;5.502;2023-04-25T00:37:20;17.95;;;4.57;;
18610;SDS011;9435;52.122;5.502;2023-04-25T00:39:47;20.52;;;4.75;;
18610;SDS011;9435;52.122;5.502;2023-04-25T00:42:16;25.20;;;5.57;;
18610;SDS011;9435;52.122;5.502;2023-04-25T00:44:43;22.30;;;4.78;;
18610;SDS011;9435;52.122;5.502;2023-04-25T00:47:11;21.65;;;4.60;;
18610;SDS011;9435;52.122;5.502;2023-04-25T00:49:39;20.42;;;4.72;;
18610;SDS011;9435;52.122;5.502;2023-04-25T00:52:06;21.15;;;4.75;;
18610;SDS011;9435;52.122;5.502;2023-04-25T00:54:33;20.73;;;5.03;;
18610;SDS011;9435;52.122;5.502;2023-04-25T00:57:00;18.63;;;4.90;;
18610;SDS011;9435;52.122;5.502;2023-04-25T00:59:28;20.50;;;5.00;;
18610;SDS011;9435;52.122;5.502;2023-04-25T01:01:56;17.58;;;4.70;;
18610;SDS011;9435;52.122;5.502;2023-04-25T01:04:24;17.90;;;4.82;;
18610;SDS011;9435;52.122;5.502;2023-04-25T01:06:53;17.27;;;4.70;;
18610;SDS011;9435;52.122;5.502;2023-04-25T01:09:20;16.58;;;4.35;;
18610;SDS011;9435;52.122;5.502;2023-04-25T01:11:49;18.10;;;4.63;;
18610;SDS011;9435;52.122;5.502;2023-04-25T01:14:16;19.63;;;4.20;;
18610;SDS011;9435;52.122;5.502;2023-04-25T01:16:44;15.13;;;4.63;;
18610;SDS011;9435;52.122;5.502;2023-04-25T01:19:11;16.33;;;4.60;;
18610;SDS011;9435;52.122;5.502;2023-04-25T01:21:45;20.52;;;4.20;;
18610;SDS011;9435;52.122;5.502;2023-04-25T01:24:12;21.00;;;4.57;;
18610;SDS011;9435;52.122;5.502;2023-04-25T01:26:40;15.45;;;4.15;;
18610;SDS011;9435;52.122;5.502;2023-04-25T01:29:09;15.43;;;3.83;;
18610;SDS011;9435;52.122;5.502;2023-04-25T01:31:37;12.35;;;4.07;;
18610;SDS011;9435;52.122;5.502;2023-04-25T01:34:04;14.80;;;4.15;;
18610;SDS011;9435;52.122;5.502;2023-04-25T01:36:31;15.98;;;4.18;;
18610;SDS011;9435;52.122;5.502;2023-04-25T01:39:01;17.70;;;4.60;;
18610;SDS011;9435;52.122;5.502;2023-04-25T01:41:28;15.25;;;4.05;;
18610;SDS011;9435;52.122;5.502;2023-04-25T01:43:55;16.25;;;3.67;;
18610;SDS011;9435;52.122;5.502;2023-04-25T01:46:22;11.27;;;3.67;;
18610;SDS011;9435;52.122;5.502;2023-04-25T01:48:50;18.08;;;3.90;;
18610;SDS011;9435;52.122;5.502;2023-04-25T01:51:17;13.68;;;4.18;;
18610;SDS011;9435;52.122;5.502;2023-04-25T01:53:44;19.73;;;4.50;;
18610;SDS011;9435;52.122;5.502;2023-04-25T01:56:13;17.27;;;4.35;;
18610;SDS011;9435;52.122;5.502;2023-04-25T01:58:40;14.32;;;4.10;;
18610;SDS011;9435;52.122;5.502;2023-04-25T02:01:07;12.18;;;4.22;;
18610;SDS011;9435;52.122;5.502;2023-04-25T02:03:34;20.98;;;4.15;;
18610;SDS011;9435;52.122;5.502;2023-04-25T02:06:02;18.27;;;4.28;;
18610;SDS011;9435;52.122;5.502;2023-04-25T02:08:29;14.65;;;4.25;;
18610;SDS011;9435;52.122;5.502;2023-04-25T02:10:57;16.42;;;3.60;;
18610;SDS011;9435;52.122;5.502;2023-04-25T02:13:25;15.30;;;4.00;;
18610;SDS011;9435;52.122;5.502;2023-04-25T02:15:52;12.05;;;3.83;;
18610;SDS011;9435;52.122;5.502;2023-04-25T02:18:19;11.85;;;3.80;;
18610;SDS011;9435;52.122;5.502;2023-04-25T02:20:46;10.88;;;3.63;;
18610;SDS011;9435;52.122;5.502;2023-04-25T02:23:13;13.23;;;3.25;;
18610;SDS011;9435;52.122;5.502;2023-04-25T02:25:41;15.48;;;3.70;;
18610;SDS011;9435;52.122;5.502;2023-04-25T02:28:08;13.25;;;3.22;;
18610;SDS011;9435;52.122;5.502;2023-04-25T02:30:37;12.82;;;3.80;;
18610;SDS011;9435;52.122;5.502;2023-04-25T02:33:04;13.80;;;3.45;;
18610;SDS011;9435;52.122;5.502;2023-04-25T02:35:31;12.70;;;3.15;;
18610;SDS011;9435;52.122;5.502;2023-04-25T02:37:58;12.80;;;3.15;;
18610;SDS011;9435;52.122;5.502;2023-04-25T02:40:25;12.43;;;3.40;;
18610;SDS011;9435;52.122;5.502;2023-04-25T02:42:52;14.07;;;3.30;;
18610;SDS011;9435;52.122;5.502;2023-04-25T02:45:19;12.70;;;3.28;;
18610;SDS011;9435;52.122;5.502;2023-04-25T02:47:48;12.98;;;3.28;;
18610;SDS011;9435;52.122;5.502;2023-04-25T02:50:15;10.32;;;3.63;;
18610;SDS011;9435;52.122;5.502;2023-04-25T02:52:43;11.02;;;3.45;;
18610;SDS011;9435;52.122;5.502;2023-04-25T02:55:11;12.35;;;3.88;;
18610;SDS011;9435;52.122;5.502;2023-04-25T02:57:39;15.75;;;4.13;;
18610;SDS011;9435;52.122;5.502;2023-04-25T03:00:06;14.25;;;4.03;;
18610;SDS011;9435;52.122;5.502;2023-04-25T03:02:34;13.88;;;3.70;;
18610;SDS011;9435;52.122;5.502;2023-04-25T03:05:02;16.10;;;3.72;;
18610;SDS011;9435;52.122;5.502;2023-04-25T03:07:30;14.63;;;4.25;;
18610;SDS011;9435;52.122;5.502;2023-04-25T03:09:57;16.45;;;3.92;;
18610;SDS011;9435;52.122;5.502;2023-04-25T03:12:24;16.45;;;3.63;;
18610;SDS011;9435;52.122;5.502;2023-04-25T03:14:54;16.25;;;4.15;;
18610;SDS011;9435;52.122;5.502;2023-04-25T03:17:23;14.52;;;3.85;;
18610;SDS011;9435;52.122;5.502;2023-04-25T03:19:50;18.45;;;4.22;;
18610;SDS011;9435;52.122;5.502;2023-04-25T03:22:19;15.27;;;3.63;;
18610;SDS011;9435;52.122;5.502;2023-04-25T03:24:46;18.65;;;4.13;;
18610;SDS011;9435;52.122;5.502;2023-04-25T03:27:13;15.23;;;3.83;;
18610;SDS011;9435;52.122;5.502;2023-04-25T03:29:40;14.98;;;3.50;;
18610;SDS011;9435;52.122;5.502;2023-04-25T03:32:07;16.05;;;3.95;;
18610;SDS011;9435;52.122;5.502;2023-04-25T03:34:34;13.50;;;3.60;;
18610;SDS011;9435;52.122;5.502;2023-04-25T03:37:01;12.90;;;3.67;;
18610;SDS011;9435;52.122;5.502;2023-04-25T03:39:29;15.27;;;3.97;;
18610;SDS011;9435;52.122;5.502;2023-04-25T03:41:56;25.75;;;4.38;;
18610;SDS011;9435;52.122;5.502;2023-04-25T03:44:23;17.38;;;3.88;;
18610;SDS011;9435;52.122;5.502;2023-04-25T03:46:50;18.67;;;4.10;;
18610;SDS011;9435;52.122;5.502;2023-04-25T03:49:17;20.75;;;4.40;;
18610;SDS011;9435;52.122;5.502;2023-04-25T03:51:44;17.90;;;4.05;;
18610;SDS011;9435;52.122;5.502;2023-04-25T03:54:11;12.07;;;3.83;;
18610;SDS011;9435;52.122;5.502;2023-04-25T03:56:40;15.23;;;4.32;;
18610;SDS011;9435;52.122;5.502;2023-04-25T03:59:07;16.05;;;4.45;;
18610;SDS011;9435;52.122;5.502;2023-04-25T04:01:34;14.23;;;4.30;;
18610;SDS011;9435;52.122;5.502;2023-04-25T04:04:01;15.27;;;4.10;;
18610;SDS011;9435;52.122;5.502;2023-04-25T04:06:28;12.88;;;3.75;;
18610;SDS011;9435;52.122;5.502;2023-04-25T04:08:55;20.95;;;4.53;;
18610;SDS011;9435;52.122;5.502;2023-04-25T04:11:22;18.80;;;4.85;;
18610;SDS011;9435;52.122;5.502;2023-04-25T04:13:51;15.57;;;4.25;;
18610;SDS011;9435;52.122;5.502;2023-04-25T04:16:18;20.35;;;4.10;;
18610;SDS011;9435;52.122;5.502;2023-04-25T04:18:45;20.85;;;4.50;;
18610;SDS011;9435;52.122;5.502;2023-04-25T04:21:12;16.15;;;4.28;;
18610;SDS011;9435;52.122;5.502;2023-04-25T04:23:40;14.50;;;4.25;;
18610;SDS011;9435;52.122;5.502;2023-04-25T04:26:07;20.48;;;4.03;;
18610;SDS011;9435;52.122;5.502;2023-04-25T04:28:34;12.38;;;3.90;;
18610;SDS011;9435;52.122;5.502;2023-04-25T04:31:02;17.77;;;3.97;;
18610;SDS011;9435;52.122;5.502;2023-04-25T04:33:29;13.63;;;3.70;;
18610;SDS011;9435;52.122;5.502;2023-04-25T04:35:57;20.50;;;3.67;;
18610;SDS011;9435;52.122;5.502;2023-04-25T04:38:24;18.65;;;3.67;;
18610;SDS011;9435;52.122;5.502;2023-04-25T04:40:51;10.63;;;3.25;;
18610;SDS011;9435;52.122;5.502;2023-04-25T04:43:18;13.18;;;3.42;;
18610;SDS011;9435;52.122;5.502;2023-04-25T04:45:45;19.65;;;3.85;;
18610;SDS011;9435;52.122;5.502;2023-04-25T04:48:14;13.10;;;3.70;;
18610;SDS011;9435;52.122;5.502;2023-04-25T04:50:42;11.73;;;3.20;;
18610;SDS011;9435;52.122;5.502;2023-04-25T04:53:11;11.82;;;3.05;;
18610;SDS011;9435;52.122;5.502;2023-04-25T04:55:39;15.98;;;3.20;;
18610;SDS011;9435;52.122;5.502;2023-04-25T04:58:08;10.20;;;2.75;;
18610;SDS011;9435;52.122;5.502;2023-04-25T05:00:35;11.10;;;3.00;;
18610;SDS011;9435;52.122;5.502;2023-04-25T05:03:02;15.57;;;2.65;;
18610;SDS011;9435;52.122;5.502;2023-04-25T05:05:32;11.30;;;2.70;;
18610;SDS011;9435;52.122;5.502;2023-04-25T05:07:59;12.95;;;2.72;;
18610;SDS011;9435;52.122;5.502;2023-04-25T05:10:26;9.60;;;2.40;;
18610;SDS011;9435;52.122;5.502;2023-04-25T05:12:53;11.70;;;2.70;;
18610;SDS011;9435;52.122;5.502;2023-04-25T05:15:20;16.15;;;2.67;;
18610;SDS011;9435;52.122;5.502;2023-04-25T05:17:47;11.30;;;2.45;;
18610;SDS011;9435;52.122;5.502;2023-04-25T05:20:14;14.38;;;2.50;;
18610;SDS011;9435;52.122;5.502;2023-04-25T05:22:42;8.27;;;2.30;;
18610;SDS011;9435;52.122;5.502;2023-04-25T05:25:09;12.13;;;2.40;;
18610;SDS011;9435;52.122;5.502;2023-04-25T05:27:37;10.15;;;2.13;;
18610;SDS011;9435;52.122;5.502;2023-04-25T05:30:04;8.00;;;2.15;;
18610;SDS011;9435;52.122;5.502;2023-04-25T05:32:33;10.70;;;2.17;;
18610;SDS011;9435;52.122;5.502;2023-04-25T05:35:00;8.95;;;2.03;;
18610;SDS011;9435;52.122;5.502;2023-04-25T05:37:27;10.90;;;2.55;;
18610;SDS011;9435;52.122;5.502;2023-04-25T05:39:57;9.13;;;2.28;;
18610;SDS011;9435;52.122;5.502;2023-04-25T05:42:24;8.05;;;2.47;;
18610;SDS011;9435;52.122;5.502;2023-04-25T05:44:51;9.43;;;2.30;;
18610;SDS011;9435;52.122;5.502;2023-04-25T05:47:18;10.77;;;2.60;;
18610;SDS011;9435;52.122;5.502;2023-04-25T05:49:45;7.07;;;2.28;;
18610;SDS011;9435;52.122;5.502;2023-04-25T05:52:12;8.13;;;2.08;;
18610;SDS011;9435;52.122;5.502;2023-04-25T05:54:40;12.32;;;2.47;;
18610;SDS011;9435;52.122;5.502;2023-04-25T05:57:08;11.82;;;2.47;;
18610;SDS011;9435;52.122;5.502;2023-04-25T05:59:44;6.68;;;2.13;;
18610;SDS011;9435;52.122;5.502;2023-04-25T06:02:11;10.82;;;2.20;;
18610;SDS011;9435;52.122;5.502;2023-04-25T06:04:38;10.68;;;2.45;;
18610;SDS011;9435;52.122;5.502;2023-04-25T06:07:05;10.32;;;2.42;;
18610;SDS011;9435;52.122;5.502;2023-04-25T06:09:32;8.30;;;2.20;;
18610;SDS011;9435;52.122;5.502;2023-04-25T06:11:59;12.93;;;2.63;;
18610;SDS011;9435;52.122;5.502;2023-04-25T06:14:28;10.80;;;2.50;;
18610;SDS011;9435;52.122;5.502;2023-04-25T06:16:55;16.60;;;2.78;;
18610;SDS011;9435;52.122;5.502;2023-04-25T06:19:22;8.45;;;2.15;;
18610;SDS011;9435;52.122;5.502;2023-04-25T06:21:49;13.55;;;2.50;;
18610;SDS011;9435;52.122;5.502;2023-04-25T06:24:16;9.65;;;2.20;;
18610;SDS011;9435;52.122;5.502;2023-04-25T06:26:44;11.43;;;2.22;;
18610;SDS011;9435;52.122;5.502;2023-04-25T06:29:12;10.40;;;2.35;;
18610;SDS011;9435;52.122;5.502;2023-04-25T06:31:41;8.45;;;2.10;;
18610;SDS011;9435;52.122;5.502;2023-04-25T06:34:08;9.88;;;2.20;;
18610;SDS011;9435;52.122;5.502;2023-04-25T06:36:35;10.27;;;2.13;;
18610;SDS011;9435;52.122;5.502;2023-04-25T06:39:02;13.63;;;2.28;;
18610;SDS011;9435;52.122;5.502;2023-04-25T06:41:29;18.55;;;2.78;;
18610;SDS011;9435;52.122;5.502;2023-04-25T06:43:56;11.13;;;2.28;;
18610;SDS011;9435;52.122;5.502;2023-04-25T06:46:23;13.63;;;2.67;;
18610;SDS011;9435;52.122;5.502;2023-04-25T06:48:51;11.07;;;2.38;;
18610;SDS011;9435;52.122;5.502;2023-04-25T06:51:18;11.32;;;1.83;;
18610;SDS011;9435;52.122;5.502;2023-04-25T06:53:45;9.57;;;1.83;;
18610;SDS011;9435;52.122;5.502;2023-04-25T06:56:12;8.85;;;1.88;;
18610;SDS011;9435;52.122;5.502;2023-04-25T06:58:39;13.52;;;2.20;;
18610;SDS011;9435;52.122;5.502;2023-04-25T07:01:06;10.75;;;1.98;;
18610;SDS011;9435;52.122;5.502;2023-04-25T07:03:33;14.52;;;2.13;;
18610;SDS011;9435;52.122;5.502;2023-04-25T07:06:03;15.25;;;2.20;;
18610;SDS011;9435;52.122;5.502;2023-04-25T07:08:31;11.18;;;2.05;;
18610;SDS011;9435;52.122;5.502;2023-04-25T07:10:58;12.80;;;2.10;;
18610;SDS011;9435;52.122;5.502;2023-04-25T07:13:25;9.45;;;2.10;;
18610;SDS011;9435;52.122;5.502;2023-04-25T07:15:52;11.63;;;2.17;;
18610;SDS011;9435;52.122;5.502;2023-04-25T07:18:19;15.77;;;2.28;;
18610;SDS011;9435;52.122;5.502;2023-04-25T07:20:46;9.60;;;2.00;;
18610;SDS011;9435;52.122;5.502;2023-04-25T07:23:14;6.95;;;1.85;;
18610;SDS011;9435;52.122;5.502;2023-04-25T07:25:41;13.68;;;2.40;;
18610;SDS011;9435;52.122;5.502;2023-04-25T07:28:08;12.10;;;1.80;;
18610;SDS011;9435;52.122;5.502;2023-04-25T07:30:35;11.23;;;1.80;;
18610;SDS011;9435;52.122;5.502;2023-04-25T07:33:02;10.40;;;1.60;;
18610;SDS011;9435;52.122;5.502;2023-04-25T07:35:29;11.13;;;1.58;;
18610;SDS011;9435;52.122;5.502;2023-04-25T07:37:56;8.13;;;1.42;;
18610;SDS011;9435;52.122;5.502;2023-04-25T07:40:25;10.35;;;1.80;;
18610;SDS011;9435;52.122;5.502;2023-04-25T07:42:52;12.18;;;1.85;;
18610;SDS011;9435;52.122;5.502;2023-04-25T07:45:19;7.93;;;1.70;;
18610;SDS011;9435;52.122;5.502;2023-04-25T07:47:46;12.32;;;1.80;;
18610;SDS011;9435;52.122;5.502;2023-04-25T07:50:14;11.00;;;1.67;;
18610;SDS011;9435;52.122;5.502;2023-04-25T07:52:41;11.43;;;1.80;;
18610;SDS011;9435;52.122;5.502;2023-04-25T07:55:08;7.68;;;1.55;;
18610;SDS011;9435;52.122;5.502;2023-04-25T07:57:37;9.68;;;1.83;;
18610;SDS011;9435;52.122;5.502;2023-04-25T08:00:04;8.65;;;1.40;;
18610;SDS011;9435;52.122;5.502;2023-04-25T08:02:34;8.05;;;1.70;;
18610;SDS011;9435;52.122;5.502;2023-04-25T08:05:01;10.90;;;1.45;;
18610;SDS011;9435;52.122;5.502;2023-04-25T08:07:28;9.65;;;1.40;;
18610;SDS011;9435;52.122;5.502;2023-04-25T08:09:55;11.82;;;1.35;;
18610;SDS011;9435;52.122;5.502;2023-04-25T08:12:22;15.52;;;1.55;;
18610;SDS011;9435;52.122;5.502;2023-04-25T08:14:51;10.80;;;1.52;;
18610;SDS011;9435;52.122;5.502;2023-04-25T08:17:18;9.05;;;1.27;;
18610;SDS011;9435;52.122;5.502;2023-04-25T08:19:45;8.45;;;1.42;;
18610;SDS011;9435;52.122;5.502;2023-04-25T08:22:12;9.57;;;1.40;;
18610;SDS011;9435;52.122;5.502;2023-04-25T08:24:39;8.20;;;1.38;;
18610;SDS011;9435;52.122;5.502;2023-04-25T08:27:07;8.65;;;1.42;;
18610;SDS011;9435;52.122;5.502;2023-04-25T08:29:34;6.68;;;1.25;;
18610;SDS011;9435;52.122;5.502;2023-04-25T08:32:03;9.50;;;1.58;;
18610;SDS011;9435;52.122;5.502;2023-04-25T08:34:30;9.20;;;1.52;;
18610;SDS011;9435;52.122;5.502;2023-04-25T08:36:57;8.63;;;1.30;;
18610;SDS011;9435;52.122;5.502;2023-04-25T08:39:24;7.18;;;1.30;;
18610;SDS011;9435;52.122;5.502;2023-04-25T08:41:51;9.00;;;1.40;;
18610;SDS011;9435;52.122;5.502;2023-04-25T08:44:19;12.55;;;1.30;;
18610;SDS011;9435;52.122;5.502;2023-04-25T08:46:48;7.72;;;1.10;;
18610;SDS011;9435;52.122;5.502;2023-04-25T08:49:17;5.10;;;1.30;;
18610;SDS011;9435;52.122;5.502;2023-04-25T08:51:45;10.80;;;1.40;;
18610;SDS011;9435;52.122;5.502;2023-04-25T08:54:13;5.90;;;1.10;;
18610;SDS011;9435;52.122;5.502;2023-04-25T08:56:43;4.30;;;1.08;;
18610;SDS011;9435;52.122;5.502;2023-04-25T08:59:11;7.90;;;1.40;;
18610;SDS011;9435;52.122;5.502;2023-04-25T09:01:38;3.10;;;0.85;;
18610;SDS011;9435;52.122;5.502;2023-04-25T09:04:05;7.38;;;1.13;;
18610;SDS011;9435;52.122;5.502;2023-04-25T09:06:34;9.77;;;1.13;;
18610;SDS011;9435;52.122;5.502;2023-04-25T09:09:02;6.03;;;1.00;;
18610;SDS011;9435;52.122;5.502;2023-04-25T09:11:31;6.25;;;0.98;;
18610;SDS011;9435;52.122;5.502;2023-04-25T09:14:14;7.75;;;1.30;;
18610;SDS011;9435;52.122;5.502;2023-04-25T09:16:58;9.13;;;1.30;;
18610;SDS011;9435;52.122;5.502;2023-04-25T09:19:30;8.80;;;1.45;;
18610;SDS011;9435;52.122;5.502;2023-04-25T09:22:02;8.82;;;1.48;;
18610;SDS011;9435;52.122;5.502;2023-04-25T09:24:30;4.43;;;0.90;;
18610;SDS011;9435;52.122;5.502;2023-04-25T09:27:03;6.95;;;1.27;;
18610;SDS011;9435;52.122;5.502;2023-04-25T09:29:31;6.07;;;1.10;;
18610;SDS011;9435;52.122;5.502;2023-04-25T09:32:15;7.55;;;0.90;;
18610;SDS011;9435;52.122;5.502;2023-04-25T09:34:44;3.45;;;0.80;;
18610;SDS011;9435;52.122;5.502;2023-04-25T09:37:18;7.85;;;1.33;;
18610;SDS011;9435;52.122;5.502;2023-04-25T09:39:46;4.57;;;0.90;;
18610;SDS011;9435;52.122;5.502;2023-04-25T09:42:15;6.45;;;1.00;;
18610;SDS011;9435;52.122;5.502;2023-04-25T09:44:42;8.48;;;1.10;;
18610;SDS011;9435;52.122;5.502;2023-04-25T09:47:10;7.20;;;1.48;;
18610;SDS011;9435;52.122;5.502;2023-04-25T09:49:39;4.53;;;0.85;;
18610;SDS011;9435;52.122;5.502;2023-04-25T09:52:13;7.22;;;1.08;;
18610;SDS011;9435;52.122;5.502;2023-04-25T09:54:42;5.95;;;1.30;;
18610;SDS011;9435;52.122;5.502;2023-04-25T09:57:10;7.80;;;0.90;;
18610;SDS011;9435;52.122;5.502;2023-04-25T09:59:39;6.60;;;0.90;;
18610;SDS011;9435;52.122;5.502;2023-04-25T10:02:09;4.15;;;1.00;;
18610;SDS011;9435;52.122;5.502;2023-04-25T10:04:38;6.82;;;1.10;;
18610;SDS011;9435;52.122;5.502;2023-04-25T10:07:05;5.03;;;0.90;;
18610;SDS011;9435;52.122;5.502;2023-04-25T10:09:33;3.78;;;0.73;;
18610;SDS011;9435;52.122;5.502;2023-04-25T10:12:06;6.45;;;0.85;;
18610;SDS011;9435;52.122;5.502;2023-04-25T10:14:34;7.63;;;1.10;;
18610;SDS011;9435;52.122;5.502;2023-04-25T10:17:01;4.88;;;0.93;;
18610;SDS011;9435;52.122;5.502;2023-04-25T10:19:29;10.43;;;1.20;;
18610;SDS011;9435;52.122;5.502;2023-04-25T10:22:03;8.60;;;1.15;;
18610;SDS011;9435;52.122;5.502;2023-04-25T10:24:33;7.07;;;1.20;;
18610;SDS011;9435;52.122;5.502;2023-04-25T10:27:02;9.82;;;1.42;;
18610;SDS011;9435;52.122;5.502;2023-04-25T10:29:30;9.15;;;1.35;;
18610;SDS011;9435;52.122;5.502;2023-04-25T10:31:58;6.30;;;1.10;;
18610;SDS011;9435;52.122;5.502;2023-04-25T10:34:37;7.30;;;1.25;;
18610;SDS011;9435;52.122;5.502;2023-04-25T10:37:05;5.13;;;0.93;;
18610;SDS011;9435;52.122;5.502;2023-04-25T10:39:38;7.95;;;1.50;;
18610;SDS011;9435;52.122;5.502;2023-04-25T10:42:06;6.47;;;0.90;;
18610;SDS011;9435;52.122;5.502;2023-04-25T10:44:36;6.53;;;1.00;;
18610;SDS011;9435;52.122;5.502;2023-04-25T10:47:05;7.47;;;0.98;;
18610;SDS011;9435;52.122;5.502;2023-04-25T10:49:34;7.15;;;1.30;;
18610;SDS011;9435;52.122;5.502;2023-04-25T10:52:15;6.22;;;1.00;;
18610;SDS011;9435;52.122;5.502;2023-04-25T10:54:51;10.55;;;1.17;;
18610;SDS011;9435;52.122;5.502;2023-04-25T10:57:29;7.45;;;1.05;;
18610;SDS011;9435;52.122;5.502;2023-04-25T11:00:04;7.57;;;1.10;;
18610;SDS011;9435;52.122;5.502;2023-04-25T11:02:36;7.60;;;1.20;;
18610;SDS011;9435;52.122;5.502;2023-04-25T11:05:04;5.10;;;1.05;;
18610;SDS011;9435;52.122;5.502;2023-04-25T11:07:34;6.50;;;0.98;;
18610;SDS011;9435;52.122;5.502;2023-04-25T11:10:05;5.88;;;0.93;;
18610;SDS011;9435;52.122;5.502;2023-04-25T11:12:33;6.80;;;1.30;;
18610;SDS011;9435;52.122;5.502;2023-04-25T11:15:02;5.93;;;1.02;;
18610;SDS011;9435;52.122;5.502;2023-04-25T11:17:30;5.35;;;0.98;;
18610;SDS011;9435;52.122;5.502;2023-04-25T11:19:58;6.57;;;1.30;;
18610;SDS011;9435;52.122;5.502;2023-04-25T11:22:26;10.73;;;1.40;;
18610;SDS011;9435;52.122;5.502;2023-04-25T11:24:53;6.38;;;1.30;;
18610;SDS011;9435;52.122;5.502;2023-04-25T11:27:20;10.25;;;1.48;;
18610;SDS011;9435;52.122;5.502;2023-04-25T11:29:49;6.75;;;1.30;;
18610;SDS011;9435;52.122;5.502;2023-04-25T11:32:18;7.05;;;1.40;;
18610;SDS011;9435;52.122;5.502;2023-04-25T11:34:46;6.05;;;1.33;;
18610;SDS011;9435;52.122;5.502;2023-04-25T11:37:13;6.22;;;1.02;;
18610;SDS011;9435;52.122;5.502;2023-04-25T11:39:44;9.32;;;1.13;;
18610;SDS011;9435;52.122;5.502;2023-04-25T11:42:12;8.52;;;1.30;;
18610;SDS011;9435;52.122;5.502;2023-04-25T11:44:39;3.85;;;1.20;;
18610;SDS011;9435;52.122;5.502;2023-04-25T11:47:06;7.90;;;1.35;;
18610;SDS011;9435;52.122;5.502;2023-04-25T11:49:35;6.35;;;1.20;;
18610;SDS011;9435;52.122;5.502;2023-04-25T11:52:02;7.40;;;1.42;;
18610;SDS011;9435;52.122;5.502;2023-04-25T11:54:34;6.25;;;1.38;;
18610;SDS011;9435;52.122;5.502;2023-04-25T11:57:02;6.40;;;1.30;;
18610;SDS011;9435;52.122;5.502;2023-04-25T11:59:29;6.07;;;1.30;;
18610;SDS011;9435;52.122;5.502;2023-04-25T12:01:56;8.23;;;1.52;;
18610;SDS011;9435;52.122;5.502;2023-04-25T12:04:25;7.15;;;1.35;;
18610;SDS011;9435;52.122;5.502;2023-04-25T12:06:57;6.10;;;1.05;;
18610;SDS011;9435;52.122;5.502;2023-04-25T12:09:29;7.70;;;1.17;;
18610;SDS011;9435;52.122;5.502;2023-04-25T12:11:58;7.93;;;1.40;;
18610;SDS011;9435;52.122;5.502;2023-04-25T12:14:28;10.25;;;1.40;;
18610;SDS011;9435;52.122;5.502;2023-04-25T12:16:57;7.63;;;1.35;;
18610;SDS011;9435;52.122;5.502;2023-04-25T12:19:25;7.38;;;1.17;;
18610;SDS011;9435;52.122;5.502;2023-04-25T12:21:53;8.48;;;1.40;;
18610;SDS011;9435;52.122;5.502;2023-04-25T12:24:22;5.50;;;1.33;;
18610;SDS011;9435;52.122;5.502;2023-04-25T12:26:52;7.43;;;1.00;;
18610;SDS011;9435;52.122;5.502;2023-04-25T12:29:20;4.90;;;0.90;;
18610;SDS011;9435;52.122;5.502;2023-04-25T12:31:49;5.40;;;1.20;;
18610;SDS011;9435;52.122;5.502;2023-04-25T12:34:17;6.45;;;1.08;;
18610;SDS011;9435;52.122;5.502;2023-04-25T12:36:44;3.97;;;1.00;;
18610;SDS011;9435;52.122;5.502;2023-04-25T12:39:15;9.50;;;1.30;;
18610;SDS011;9435;52.122;5.502;2023-04-25T12:41:44;3.03;;;0.90;;
18610;SDS011;9435;52.122;5.502;2023-04-25T12:44:11;6.72;;;1.13;;
18610;SDS011;9435;52.122;5.502;2023-04-25T12:46:38;7.85;;;1.30;;
18610;SDS011;9435;52.122;5.502;2023-04-25T12:49:06;4.47;;;0.90;;
18610;SDS011;9435;52.122;5.502;2023-04-25T12:51:34;5.18;;;1.20;;
18610;SDS011;9435;52.122;5.502;2023-04-25T12:54:02;6.10;;;1.17;;
18610;SDS011;9435;52.122;5.502;2023-04-25T12:56:29;4.68;;;1.00;;
18610;SDS011;9435;52.122;5.502;2023-04-25T12:58:58;5.78;;;1.17;;
18610;SDS011;9435;52.122;5.502;2023-04-25T13:01:25;5.35;;;0.88;;
18610;SDS011;9435;52.122;5.502;2023-04-25T13:03:52;6.45;;;1.05;;
18610;SDS011;9435;52.122;5.502;2023-04-25T13:06:20;5.07;;;0.90;;
18610;SDS011;9435;52.122;5.502;2023-04-25T13:08:47;3.38;;;0.80;;
18610;SDS011;9435;52.122;5.502;2023-04-25T13:11:14;6.35;;;1.00;;
18610;SDS011;9435;52.122;5.502;2023-04-25T13:13:41;5.18;;;0.82;;
18610;SDS011;9435;52.122;5.502;2023-04-25T13:16:11;7.03;;;1.10;;
18610;SDS011;9435;52.122;5.502;2023-04-25T13:18:39;8.70;;;1.17;;
18610;SDS011;9435;52.122;5.502;2023-04-25T13:21:06;4.63;;;0.98;;
18610;SDS011;9435;52.122;5.502;2023-04-25T13:23:33;4.80;;;0.90;;
18610;SDS011;9435;52.122;5.502;2023-04-25T13:26:00;7.10;;;1.00;;
18610;SDS011;9435;52.122;5.502;2023-04-25T13:28:28;5.75;;;1.15;;
18610;SDS011;9435;52.122;5.502;2023-04-25T13:30:55;6.88;;;0.90;;
18610;SDS011;9435;52.122;5.502;2023-04-25T13:33:23;5.05;;;1.10;;
18610;SDS011;9435;52.122;5.502;2023-04-25T13:35:51;6.28;;;1.20;;
18610;SDS011;9435;52.122;5.502;2023-04-25T13:38:21;5.03;;;0.90;;
18610;SDS011;9435;52.122;5.502;2023-04-25T13:40:49;7.03;;;1.30;;
18610;SDS011;9435;52.122;5.502;2023-04-25T13:43:17;3.35;;;1.05;;
18610;SDS011;9435;52.122;5.502;2023-04-25T13:45:45;7.70;;;1.00;;
18610;SDS011;9435;52.122;5.502;2023-04-25T13:48:12;5.78;;;1.20;;
18610;SDS011;9435;52.122;5.502;2023-04-25T13:50:41;6.45;;;1.10;;
18610;SDS011;9435;52.122;5.502;2023-04-25T13:53:08;6.20;;;1.33;;
18610;SDS011;9435;52.122;5.502;2023-04-25T13:55:35;5.35;;;1.00;;
18610;SDS011;9435;52.122;5.502;2023-04-25T13:58:03;3.60;;;0.82;;
18610;SDS011;9435;52.122;5.502;2023-04-25T14:00:33;5.78;;;1.00;;
18610;SDS011;9435;52.122;5.502;2023-04-25T14:03:02;7.22;;;1.33;;
18610;SDS011;9435;52.122;5.502;2023-04-25T14:05:32;4.78;;;1.08;;
18610;SDS011;9435;52.122;5.502;2023-04-25T14:08:04;3.83;;;0.90;;
18610;SDS011;9435;52.122;5.502;2023-04-25T14:10:32;5.57;;;1.10;;
18610;SDS011;9435;52.122;5.502;2023-04-25T14:12:59;8.13;;;1.40;;
18610;SDS011;9435;52.122;5.502;2023-04-25T14:15:28;4.55;;;1.30;;
18610;SDS011;9435;52.122;5.502;2023-04-25T14:17:55;8.07;;;1.20;;
18610;SDS011;9435;52.122;5.502;2023-04-25T14:20:22;7.88;;;1.48;;
18610;SDS011;9435;52.122;5.502;2023-04-25T14:22:49;5.20;;;1.10;;
18610;SDS011;9435;52.122;5.502;2023-04-25T14:25:18;7.65;;;1.48;;
18610;SDS011;9435;52.122;5.502;2023-04-25T14:27:45;7.05;;;1.20;;
18610;SDS011;9435;52.122;5.502;2023-04-25T14:30:14;6.88;;;1.10;;
18610;SDS011;9435;52.122;5.502;2023-04-25T14:32:42;8.73;;;1.60;;
18610;SDS011;9435;52.122;5.502;2023-04-25T14:35:10;8.77;;;1.25;;
18610;SDS011;9435;52.122;5.502;2023-04-25T14:37:37;5.78;;;1.30;;
18610;SDS011;9435;52.122;5.502;2023-04-25T14:40:04;6.15;;;1.20;;
18610;SDS011;9435;52.122;5.502;2023-04-25T14:42:35;9.25;;;1.27;;
18610;SDS011;9435;52.122;5.502;2023-04-25T14:45:02;4.68;;;1.00;;
18610;SDS011;9435;52.122;5.502;2023-04-25T14:47:29;7.28;;;1.27;;
18610;SDS011;9435;52.122;5.502;2023-04-25T14:49:57;5.53;;;1.15;;
18610;SDS011;9435;52.122;5.502;2023-04-25T14:52:24;6.13;;;1.23;;
18610;SDS011;9435;52.122;5.502;2023-04-25T14:54:51;6.30;;;1.38;;
18610;SDS011;9435;52.122;5.502;2023-04-25T14:57:18;4.75;;;1.10;;
18610;SDS011;9435;52.122;5.502;2023-04-25T14:59:47;5.85;;;1.58;;